createdAt,value
2018-11-07T00:00:27.944Z,96.75
2018-11-07T00:01:37.781Z,97.23
2018-11-07T00:02:48.191Z,97.32
2018-11-07T00:03:58.239Z,96.56
2018-11-07T00:05:08.114Z,96.66
2018-11-07T00:06:18.205Z,96.75
2018-11-07T00:07:27.501Z,96.46
2018-11-07T00:08:37.786Z,96.46
2018-11-07T00:09:47.935Z,96.46
2018-11-07T00:10:57.815Z,96.46
2018-11-07T00:12:07.992Z,96.46
2018-11-07T00:13:17.805Z,96.27
2018-11-07T00:14:27.960Z,96.46
2018-11-07T00:15:38.043Z,96.66
2018-11-07T00:16:48.134Z,96.66
2018-11-07T00:17:57.739Z,96.27
2018-11-07T00:19:07.861Z,96.66
2018-11-07T00:20:18.917Z,96.66
2018-11-07T00:21:28.746Z,96.56
2018-11-07T00:22:38.592Z,96.61
2018-11-07T00:23:48.687Z,96.46
2018-11-07T00:24:58.571Z,96.37
2018-11-07T00:26:08.908Z,96.27
2018-11-07T00:27:19.212Z,96.46
2018-11-07T00:28:29.020Z,96.46
2018-11-07T00:29:38.850Z,96.27
2018-11-07T00:30:48.989Z,96.46
2018-11-07T00:31:59.085Z,96.56
2018-11-07T00:33:09.164Z,96.56
2018-11-07T00:34:18.771Z,96.46
2018-11-07T00:35:28.907Z,96.66
2018-11-07T00:36:38.463Z,96.27
2018-11-07T00:37:48.265Z,96.46
2018-11-07T00:38:58.118Z,96.56
2018-11-07T00:40:07.765Z,96.66
2018-11-07T00:41:17.572Z,96.46
2018-11-07T00:42:27.499Z,96.75
2018-11-07T00:43:37.254Z,96.27
2018-11-07T00:44:47.384Z,96.37
2018-11-07T00:45:57.283Z,96.27
2018-11-07T00:47:07.355Z,96.56
2018-11-07T00:48:17.175Z,96.27
2018-11-07T00:49:26.463Z,96.37
2018-11-07T00:50:36.308Z,96.37
2018-11-07T00:51:46.608Z,96.46
2018-11-07T00:52:56.677Z,96.46
2018-11-07T00:54:05.973Z,96.66
2018-11-07T00:55:15.800Z,97.13
2018-11-07T00:56:26.128Z,97.03
2018-11-07T00:57:36.204Z,97.03
2018-11-07T00:58:46.286Z,97.03
2018-11-07T00:59:55.843Z,97.03
2018-11-07T01:01:06.590Z,97.03
2018-11-07T01:02:16.669Z,97.03
2018-11-07T01:03:26.797Z,97.13
2018-11-07T01:04:36.900Z,96.75
2018-11-07T01:05:47.069Z,96.75
2018-11-07T01:06:56.867Z,97.13
2018-11-07T01:08:06.957Z,97.13
2018-11-07T01:09:16.939Z,97.03
2018-11-07T01:10:27.856Z,97.13
2018-11-07T01:11:38.168Z,97.03
2018-11-07T01:12:48.001Z,97.08
2018-11-07T01:13:58.072Z,97.13
2018-11-07T01:15:08.683Z,97.08
2018-11-07T01:16:18.544Z,97.08
2018-11-07T01:17:28.372Z,96.7
2018-11-07T01:18:38.682Z,96.56
2018-11-07T01:19:48.963Z,96.42
2018-11-07T01:20:58.852Z,96.32
2018-11-07T01:22:08.866Z,96.42
2018-11-07T01:23:19.129Z,96.42
2018-11-07T01:24:28.937Z,96.32
2018-11-07T01:25:38.489Z,96.42
2018-11-07T01:26:48.040Z,96.32
2018-11-07T01:27:57.858Z,96.42
2018-11-07T01:29:10.236Z,97.18
2018-11-07T01:30:20.324Z,96.89
2018-11-07T01:31:29.899Z,96.98
2018-11-07T01:32:39.775Z,97.08
2018-11-07T01:33:49.865Z,97.08
2018-11-07T01:34:59.693Z,96.98
2018-11-07T01:36:09.511Z,96.98
2018-11-07T01:37:19.607Z,96.98
2018-11-07T01:38:29.480Z,96.98
2018-11-07T01:39:39.550Z,96.61
2018-11-07T01:40:49.361Z,96.98
2018-11-07T01:41:59.194Z,96.98
2018-11-07T01:43:09.378Z,96.89
2018-11-07T01:44:19.182Z,96.89
2018-11-07T01:45:28.987Z,96.8
2018-11-07T01:46:39.100Z,96.89
2018-11-07T01:47:49.379Z,96.89
2018-11-07T01:48:59.454Z,96.98
2018-11-07T01:50:09.568Z,96.84
2018-11-07T01:51:19.395Z,96.8
2018-11-07T01:52:29.212Z,96.8
2018-11-07T01:53:39.020Z,97.08
2018-11-07T01:54:48.827Z,96.98
2018-11-07T01:55:58.963Z,96.94
2018-11-07T01:57:08.790Z,96.98
2018-11-07T01:58:18.087Z,97.03
2018-11-07T01:59:28.103Z,96.84
2018-11-07T02:00:37.929Z,96.56
2018-11-07T02:01:47.807Z,97.18
2018-11-07T02:02:58.232Z,97.03
2018-11-07T02:04:08.659Z,96.94
2018-11-07T02:05:18.510Z,97.08
2018-11-07T02:06:28.587Z,96.84
2018-11-07T02:07:38.675Z,96.94
2018-11-07T02:08:48.741Z,96.84
2018-11-07T02:09:58.302Z,97.03
2018-11-07T02:11:09.775Z,96.46
2018-11-07T02:12:19.583Z,96.46
2018-11-07T02:13:29.661Z,96.37
2018-11-07T02:14:39.743Z,96.27
2018-11-07T02:15:49.884Z,96.37
2018-11-07T02:16:59.757Z,96.56
2018-11-07T02:18:09.566Z,96.27
2018-11-07T02:19:19.693Z,96.56
2018-11-07T02:20:29.519Z,96.56
2018-11-07T02:21:39.606Z,96.37
2018-11-07T02:22:49.450Z,96.37
2018-11-07T02:23:59.260Z,96.27
2018-11-07T02:25:23.703Z,96.66
2018-11-07T02:26:34.231Z,96.27
2018-11-07T02:27:44.138Z,96.37
2018-11-07T02:28:53.665Z,96.37
2018-11-07T02:30:05.385Z,96.46
2018-11-07T02:31:15.528Z,96.46
2018-11-07T02:32:25.306Z,96.46
2018-11-07T02:33:35.439Z,96.37
2018-11-07T02:34:45.521Z,96.27
2018-11-07T02:35:55.625Z,96.27
2018-11-07T02:37:06.508Z,96.27
2018-11-07T02:38:16.996Z,96.37
2018-11-07T02:39:27.099Z,96.17
2018-11-07T02:40:36.866Z,96.27
2018-11-07T02:41:46.830Z,96.46
2018-11-07T02:42:56.978Z,96.37
2018-11-07T02:44:07.051Z,96.46
2018-11-07T02:45:17.139Z,96.46
2018-11-07T02:46:26.706Z,96.08
2018-11-07T02:47:36.970Z,96.08
2018-11-07T02:49:02.830Z,96.17
2018-11-07T02:50:13.751Z,96.17
2018-11-07T02:51:23.856Z,96.46
2018-11-07T02:52:33.685Z,96.56
2018-11-07T02:53:43.508Z,96.56
2018-11-07T02:54:52.856Z,96.08
2018-11-07T02:56:04.787Z,96.56
2018-11-07T02:57:14.330Z,96.56
2018-11-07T02:58:24.140Z,96.37
2018-11-07T02:59:33.959Z,96.37
2018-11-07T03:00:43.834Z,96.46
2018-11-07T03:01:53.436Z,96.37
2018-11-07T03:03:03.914Z,96.37
2018-11-07T03:34:42.408Z,90.32
2018-11-07T03:35:52.231Z,90.51
2018-11-07T03:37:02.138Z,91.37
2018-11-07T03:38:11.963Z,91.94
2018-11-07T03:39:21.872Z,92.89
2018-11-07T03:40:31.777Z,93.27
2018-11-07T03:41:41.581Z,94.03
2018-11-07T03:42:51.142Z,94.7
2018-11-07T03:44:01.395Z,95.08
2018-11-07T03:45:10.971Z,95.17
2018-11-07T03:46:20.814Z,96.03
2018-11-07T03:47:30.712Z,95.75
2018-11-07T03:48:40.811Z,95.98
2018-11-07T03:49:50.675Z,95.6
2018-11-07T03:51:00.524Z,95.98
2018-11-07T03:52:11.707Z,95.7
2018-11-07T03:53:22.091Z,96.22
2018-11-07T03:54:32.431Z,96.17
2018-11-07T03:55:42.286Z,96.41
2018-11-07T03:56:51.847Z,96.41
2018-11-07T03:58:03.521Z,96.22
2018-11-07T03:59:13.201Z,96.22
2018-11-07T04:00:23.273Z,95.94
2018-11-07T04:01:33.084Z,95.75
2018-11-07T04:02:42.917Z,96.12
2018-11-07T04:03:53.146Z,96.22
2018-11-07T04:05:02.961Z,95.75
2018-11-07T04:06:13.083Z,95.94
2018-11-07T04:07:22.976Z,95.98
2018-11-07T04:08:32.802Z,96.08
2018-11-07T04:09:42.620Z,95.98
2018-11-07T04:10:52.462Z,95.89
2018-11-07T04:12:03.046Z,95.98
2018-11-07T04:13:13.124Z,95.79
2018-11-07T04:14:22.952Z,96.08
2018-11-07T04:15:32.507Z,96.08
2018-11-07T04:16:42.306Z,96.17
2018-11-07T04:17:51.853Z,96.17
2018-11-07T04:19:01.663Z,96.17
2018-11-07T04:20:11.475Z,96.08
2018-11-07T04:21:21.293Z,95.98
2018-11-07T04:22:31.385Z,96.08
2018-11-07T04:23:40.968Z,95.89
2018-11-07T04:24:50.855Z,95.89
2018-11-07T04:26:00.663Z,96.36
2018-11-07T04:27:10.596Z,95.84
2018-11-07T04:28:19.623Z,96.46
2018-11-07T04:29:29.178Z,96.17
2018-11-07T04:30:39.007Z,95.75
2018-11-07T04:31:48.825Z,96.41
2018-11-07T04:32:58.958Z,95.84
2018-11-07T04:34:09.823Z,96.27
2018-11-07T04:35:19.884Z,95.94
2018-11-07T04:36:29.441Z,96.51
2018-11-07T04:37:39.528Z,96.03
2018-11-07T04:38:49.233Z,96.03
2018-11-07T04:39:59.198Z,96.03
2018-11-07T04:41:09.025Z,96.03
2018-11-07T04:42:19.103Z,96.32
2018-11-07T04:43:28.916Z,96.51
2018-11-07T04:44:39.149Z,96.22
2018-11-07T04:45:48.986Z,96.17
2018-11-07T04:46:59.041Z,96.22
2018-11-07T04:48:08.329Z,95.89
2018-11-07T04:49:18.410Z,95.94
2018-11-07T04:50:28.296Z,96.41
2018-11-07T04:51:38.100Z,96.41
2018-11-07T04:52:48.761Z,95.98
2018-11-07T04:53:58.321Z,96.13
2018-11-07T04:55:08.166Z,95.94
2018-11-07T04:56:17.869Z,96.08
2018-11-07T04:57:27.935Z,95.89
2018-11-07T04:58:37.224Z,95.98
2018-11-07T04:59:47.296Z,95.98
2018-11-07T05:00:57.104Z,96.36
2018-11-07T05:02:07.256Z,96.36
2018-11-07T05:03:17.334Z,96.27
2018-11-07T05:04:27.418Z,96.46
2018-11-07T05:05:37.502Z,96.27
2018-11-07T05:06:47.807Z,96.27
2018-11-07T05:07:57.712Z,96.27
2018-11-07T05:09:07.530Z,96.46
2018-11-07T05:10:17.117Z,96.36
2018-11-07T05:11:26.933Z,96.46
2018-11-07T05:12:37.029Z,96.27
2018-11-07T05:13:46.582Z,96.46
2018-11-07T05:14:56.184Z,96.46
2018-11-07T05:16:06.646Z,95.98
2018-11-07T05:17:16.752Z,95.98
2018-11-07T05:18:26.816Z,95.98
2018-11-07T05:19:36.960Z,96.17
2018-11-07T05:20:47.056Z,96.17
2018-11-07T05:21:56.884Z,96.17
2018-11-07T05:23:06.969Z,96.17
2018-11-07T05:24:17.047Z,96.46
2018-11-07T05:25:26.883Z,96.46
2018-11-07T05:26:36.961Z,96.46
2018-11-07T05:27:47.050Z,96.36
2018-11-07T05:28:56.864Z,95.89
2018-11-07T05:30:06.678Z,95.98
2018-11-07T05:31:16.730Z,96.36
2018-11-07T05:32:26.810Z,95.79
2018-11-07T05:33:36.397Z,96.27
2018-11-07T05:34:46.595Z,96.27
2018-11-07T05:35:56.420Z,96.46
2018-11-07T05:37:05.967Z,96.17
2018-11-07T05:38:15.760Z,95.79
2018-11-07T05:39:25.833Z,95.89
2018-11-07T05:40:35.412Z,95.79
2018-11-07T05:41:45.734Z,95.7
2018-11-07T05:42:55.903Z,95.61
2018-11-07T05:44:06.227Z,95.79
2018-11-07T05:45:16.491Z,95.79
2018-11-07T05:46:26.312Z,95.89
2018-11-07T05:47:36.396Z,96.08
2018-11-07T05:48:46.037Z,96.08
2018-11-07T05:49:56.263Z,95.98
2018-11-07T05:51:07.366Z,95.89
2018-11-07T05:52:16.963Z,95.79
2018-11-07T05:53:26.778Z,95.79
2018-11-07T05:54:36.729Z,95.89
2018-11-07T05:55:46.838Z,95.89
2018-11-07T05:56:56.918Z,95.79
2018-11-07T05:58:06.981Z,95.89
2018-11-07T05:59:16.792Z,95.89
2018-11-07T06:00:26.917Z,95.98
2018-11-07T06:01:36.977Z,96.17
2018-11-07T06:02:47.051Z,95.7
2018-11-07T06:03:57.130Z,95.75
2018-11-07T06:05:06.688Z,96.03
2018-11-07T06:06:16.504Z,95.65
2018-11-07T06:07:26.330Z,95.84
2018-11-07T06:08:36.444Z,95.56
2018-11-07T06:09:46.515Z,95.65
2018-11-07T06:10:55.799Z,95.65
2018-11-07T06:12:05.947Z,95.65
2018-11-07T06:13:15.544Z,95.84
2018-11-07T06:14:25.381Z,95.08
2018-11-07T06:15:35.186Z,95.17
2018-11-07T06:16:44.738Z,95.27
2018-11-07T06:17:54.936Z,95.17
2018-11-07T06:19:04.877Z,95.17
2018-11-07T06:20:14.749Z,95.17
2018-11-07T06:21:24.300Z,95.08
2018-11-07T06:22:34.146Z,95.27
2018-11-07T06:23:44.239Z,95.41
2018-11-07T06:24:54.454Z,95.32
2018-11-07T06:26:04.884Z,95.12
2018-11-07T06:27:14.711Z,95.51
2018-11-07T06:28:24.807Z,95.61
2018-11-07T06:29:34.904Z,95.32
2018-11-07T06:30:44.447Z,95.89
2018-11-07T06:31:54.576Z,94.74
2018-11-07T06:33:04.388Z,95.03
2018-11-07T06:34:14.609Z,95.03
2018-11-07T06:35:24.699Z,94.65
2018-11-07T06:36:34.783Z,94.93
2018-11-07T06:37:44.605Z,94.89
2018-11-07T06:38:54.151Z,95.03
2018-11-07T06:40:06.000Z,95.75
2018-11-07T06:41:16.139Z,95.17
2018-11-07T06:42:25.938Z,95.51
2018-11-07T06:43:35.982Z,95.65
2018-11-07T06:44:45.545Z,95.51
2018-11-07T06:45:55.931Z,95.56
2018-11-07T06:47:07.464Z,95.75
2018-11-07T06:48:17.541Z,95.27
2018-11-07T06:49:27.193Z,95.56
2018-11-07T06:50:37.289Z,95.08
2018-11-07T06:51:47.332Z,95.17
2018-11-07T06:52:57.207Z,95.36
2018-11-07T06:54:07.284Z,95.17
2018-11-07T06:55:16.999Z,95.56
2018-11-07T06:56:27.033Z,95.36
2018-11-07T06:57:37.334Z,95.36
2018-11-07T06:58:47.249Z,95.27
2018-11-07T06:59:57.063Z,95.56
2018-11-07T07:01:08.662Z,95.36
2018-11-07T07:02:18.316Z,95.56
2018-11-07T07:03:28.419Z,95.84
2018-11-07T07:04:38.554Z,95.17
2018-11-07T07:05:48.375Z,95.08
2018-11-07T07:06:58.210Z,94.98
2018-11-07T07:08:10.556Z,95.17
2018-11-07T07:09:20.377Z,94.98
2018-11-07T07:10:30.206Z,94.89
2018-11-07T07:11:40.228Z,94.98
2018-11-07T07:12:50.059Z,95.03
2018-11-07T07:14:00.148Z,95.12
2018-11-07T07:15:09.977Z,94.93
2018-11-07T07:16:19.826Z,94.93
2018-11-07T07:17:30.101Z,94.93
2018-11-07T07:18:39.777Z,94.93
2018-11-07T07:19:49.967Z,94.93
2018-11-07T07:20:59.786Z,95.03
2018-11-07T07:22:10.587Z,94.84
2018-11-07T07:23:20.163Z,94.93
2018-11-07T07:24:30.297Z,95.03
2018-11-07T07:25:40.233Z,94.74
2018-11-07T07:26:50.837Z,94.93
2018-11-07T07:28:00.919Z,94.93
2018-11-07T07:29:10.759Z,95.03
2018-11-07T07:30:20.730Z,94.84
2018-11-07T07:31:30.828Z,94.93
2018-11-07T07:32:40.642Z,94.84
2018-11-07T07:33:50.930Z,95.03
2018-11-07T07:35:00.654Z,95.03
2018-11-07T07:36:10.452Z,95.22
2018-11-07T07:37:20.277Z,95.22
2018-11-07T07:38:30.368Z,95.03
2018-11-07T07:39:40.567Z,95.03
2018-11-07T07:40:50.654Z,94.65
2018-11-07T07:42:00.965Z,95.12
2018-11-07T07:43:10.763Z,94.65
2018-11-07T07:44:20.860Z,95.12
2018-11-07T07:45:30.708Z,94.65
2018-11-07T07:46:40.388Z,94.55
2018-11-07T07:47:50.274Z,94.65
2018-11-07T07:49:00.162Z,94.89
2018-11-07T07:50:10.256Z,94.7
2018-11-07T07:51:20.328Z,94.89
2018-11-07T07:52:29.953Z,94.6
2018-11-07T07:53:40.077Z,94.31
2018-11-07T07:54:49.654Z,94.41
2018-11-07T07:55:59.990Z,94.12
2018-11-07T07:57:10.104Z,94.31
2018-11-07T07:58:19.981Z,94.31
2018-11-07T07:59:30.312Z,94.51
2018-11-07T08:00:39.900Z,94.6
2018-11-07T08:01:49.716Z,94.51
2018-11-07T08:02:59.851Z,94.7
2018-11-07T08:04:09.773Z,94.02
2018-11-07T08:05:19.866Z,93.93
2018-11-07T08:06:29.932Z,93.93
2018-11-07T08:07:39.767Z,93.88
2018-11-07T08:08:49.519Z,94.17
2018-11-07T08:09:58.811Z,93.79
2018-11-07T08:11:10.198Z,94.26
2018-11-07T08:12:20.270Z,94.36
2018-11-07T08:13:30.533Z,94.26
2018-11-07T08:14:40.714Z,94.17
2018-11-07T08:15:50.535Z,94.07
2018-11-07T08:17:00.603Z,94.17
2018-11-07T08:18:09.909Z,94.07
2018-11-07T08:19:19.749Z,94.07
2018-11-07T08:20:29.567Z,94.07
2018-11-07T08:21:39.403Z,93.79
2018-11-07T08:22:49.493Z,93.88
2018-11-07T08:23:59.359Z,94.07
2018-11-07T08:25:09.465Z,93.74
2018-11-07T08:26:18.755Z,93.64
2018-11-07T08:27:28.839Z,93.64
2018-11-07T08:28:38.684Z,93.84
2018-11-07T08:29:48.761Z,93.93
2018-11-07T08:30:59.087Z,93.74
2018-11-07T08:32:09.135Z,93.5
2018-11-07T08:33:18.781Z,93.3
2018-11-07T08:34:28.870Z,93.21
2018-11-07T08:35:38.686Z,93.21
2018-11-07T08:36:48.824Z,93.21
2018-11-07T08:37:58.746Z,93.4
2018-11-07T08:39:08.331Z,93.4
2018-11-07T08:40:18.396Z,93.5
2018-11-07T08:41:28.264Z,92.87
2018-11-07T08:42:38.422Z,92.97
2018-11-07T08:43:48.497Z,93.16
2018-11-07T08:44:58.376Z,92.87
2018-11-07T08:46:11.331Z,93.16
2018-11-07T08:47:21.444Z,93.07
2018-11-07T08:48:31.591Z,92.87
2018-11-07T08:49:41.424Z,92.78
2018-11-07T08:50:51.540Z,93.07
2018-11-07T08:52:01.365Z,93.4
2018-11-07T08:53:11.218Z,93.3
2018-11-07T08:54:21.427Z,93.11
2018-11-07T08:55:31.540Z,92.54
2018-11-07T08:56:41.616Z,92.54
2018-11-07T08:57:51.704Z,92.82
2018-11-07T08:59:03.125Z,92.82
2018-11-07T09:00:13.202Z,92.82
2018-11-07T09:01:23.451Z,92.44
2018-11-07T09:02:33.855Z,92.63
2018-11-07T09:03:43.705Z,92.35
2018-11-07T09:04:53.748Z,92.2
2018-11-07T09:06:05.028Z,92.68
2018-11-07T09:07:14.854Z,92.2
2018-11-07T09:08:24.672Z,92.3
2018-11-07T09:09:34.502Z,92.58
2018-11-07T09:10:44.070Z,92.44
2018-11-07T09:11:53.929Z,91.96
2018-11-07T09:13:03.910Z,92.82
2018-11-07T09:14:13.829Z,92.34
2018-11-07T09:15:23.653Z,92.44
2018-11-07T09:16:33.727Z,92.34
2018-11-07T09:17:44.913Z,92.58
2018-11-07T09:18:54.736Z,92.58
2018-11-07T09:20:04.624Z,92.77
2018-11-07T09:21:14.553Z,92.48
2018-11-07T09:22:24.668Z,92.68
2018-11-07T09:23:35.015Z,92.68
2018-11-07T09:24:45.079Z,92.48
2018-11-07T09:25:54.893Z,93.15
2018-11-07T09:27:04.923Z,92.96
2018-11-07T09:28:14.473Z,92.77
2018-11-07T09:29:23.839Z,92.77
2018-11-07T09:30:33.730Z,92.96
2018-11-07T09:31:43.588Z,93.06
2018-11-07T09:32:53.444Z,92.86
2018-11-07T09:34:03.887Z,92.86
2018-11-07T09:35:13.772Z,93.25
2018-11-07T09:36:23.578Z,92.68
2018-11-07T09:37:33.661Z,92.39
2018-11-07T09:38:43.748Z,92.53
2018-11-07T09:39:53.751Z,92.63
2018-11-07T09:41:03.616Z,92.82
2018-11-07T09:42:13.449Z,92.91
2018-11-07T09:43:23.009Z,92.29
2018-11-07T09:44:33.149Z,92.19
2018-11-07T09:45:43.490Z,91.61
2018-11-07T09:46:53.300Z,91.71
2018-11-07T09:48:06.051Z,91.81
2018-11-07T09:49:16.662Z,91.85
2018-11-07T09:50:26.747Z,91.66
2018-11-07T09:51:36.521Z,91.85
2018-11-07T09:52:46.646Z,91.8
2018-11-07T09:53:57.259Z,92.14
2018-11-07T09:55:07.056Z,92.24
2018-11-07T09:56:17.138Z,93.01
2018-11-07T09:57:27.307Z,92.81
2018-11-07T09:58:37.661Z,92.62
2018-11-07T09:59:47.751Z,92.62
2018-11-07T10:00:57.638Z,92.62
2018-11-07T10:02:08.797Z,92.43
2018-11-07T10:03:18.888Z,92.91
2018-11-07T10:04:28.433Z,92.81
2018-11-07T10:05:38.502Z,92.62
2018-11-07T10:06:48.845Z,92.67
2018-11-07T10:07:58.979Z,92.47
2018-11-07T10:09:10.638Z,91.85
2018-11-07T10:10:20.459Z,92.04
2018-11-07T10:11:31.299Z,91.6
2018-11-07T10:12:41.659Z,91.51
2018-11-07T10:13:51.478Z,91.51
2018-11-07T10:15:01.556Z,91.55
2018-11-07T10:16:11.950Z,91.46
2018-11-07T10:17:22.037Z,91.65
2018-11-07T10:18:31.846Z,91.21
2018-11-07T10:19:41.963Z,91.31
2018-11-07T10:20:51.525Z,91.41
2018-11-07T10:22:02.308Z,91.36
2018-11-07T10:23:12.182Z,91.45
2018-11-07T10:24:22.291Z,91.45
2018-11-07T10:25:32.406Z,91.36
2018-11-07T10:26:42.780Z,91.36
2018-11-07T10:27:54.373Z,91.16
2018-11-07T10:29:10.889Z,91.45
2018-11-07T10:30:22.272Z,91.64
2018-11-07T10:31:33.295Z,91.64
2018-11-07T10:32:43.379Z,91.36
2018-11-07T10:33:53.371Z,91.55
2018-11-07T10:35:04.907Z,91.83
2018-11-07T10:36:14.754Z,91.74
2018-11-07T10:37:32.259Z,91.55
2018-11-07T10:38:43.386Z,91.64
2018-11-07T10:39:54.062Z,91.74
2018-11-07T10:41:04.695Z,91.93
2018-11-07T10:42:14.531Z,91.93
2018-11-07T10:43:24.670Z,91.55
2018-11-07T10:44:34.966Z,91.6
2018-11-07T10:45:44.271Z,91.78
2018-11-07T10:46:54.148Z,91.78
2018-11-07T10:48:06.508Z,91.69
2018-11-07T10:49:16.597Z,91.44
2018-11-07T10:50:26.212Z,92.08
2018-11-07T10:51:36.039Z,91.64
2018-11-07T10:52:46.220Z,91.54
2018-11-07T10:53:56.320Z,91.78
2018-11-07T10:55:06.254Z,91.74
2018-11-07T10:56:16.383Z,91.64
2018-11-07T10:57:26.219Z,92.08
2018-11-07T10:58:36.030Z,91.88
2018-11-07T10:59:45.574Z,91.83
2018-11-07T11:00:55.409Z,92.8
2018-11-07T11:02:06.658Z,92.32
2018-11-07T11:03:16.317Z,93.09
2018-11-07T11:04:26.178Z,92.99
2018-11-07T11:05:35.752Z,93.09
2018-11-07T11:06:45.588Z,93.09
2018-11-07T11:07:55.152Z,92.61
2018-11-07T11:09:05.243Z,92.61
2018-11-07T11:10:15.317Z,92.13
2018-11-07T11:11:25.431Z,92.13
2018-11-07T11:12:35.799Z,91.93
2018-11-07T11:13:45.947Z,92.13
2018-11-07T11:14:56.048Z,91.83
2018-11-07T11:16:07.246Z,91.74
2018-11-07T11:17:17.001Z,92.03
2018-11-07T11:18:27.901Z,92.13
2018-11-07T11:19:37.999Z,92.13
2018-11-07T11:20:48.409Z,91.98
2018-11-07T11:21:58.318Z,92.13
2018-11-07T11:23:08.497Z,92.32
2018-11-07T11:24:18.380Z,92.32
2018-11-07T11:25:28.785Z,92.22
2018-11-07T11:26:38.897Z,92.46
2018-11-07T11:27:49.035Z,92.22
2018-11-07T11:28:59.194Z,92.71
2018-11-07T11:30:09.333Z,92.8
2018-11-07T11:31:19.146Z,91.93
2018-11-07T11:32:29.588Z,92.03
2018-11-07T11:33:40.097Z,92.03
2018-11-07T11:34:50.847Z,91.98
2018-11-07T11:36:01.263Z,92.17
2018-11-07T11:37:11.104Z,91.5
2018-11-07T11:38:20.833Z,91.69
2018-11-07T11:39:30.946Z,91.69
2018-11-07T11:40:41.088Z,91.78
2018-11-07T11:41:51.354Z,92.03
2018-11-07T11:43:01.584Z,92.03
2018-11-07T11:44:11.908Z,92.03
2018-11-07T11:45:21.829Z,91.93
2018-11-07T11:46:32.181Z,92.03
2018-11-07T11:47:42.258Z,92.56
2018-11-07T11:48:52.619Z,92.76
2018-11-07T11:50:03.372Z,93.14
2018-11-07T11:51:14.078Z,92.27
2018-11-07T11:52:24.399Z,93.04
2018-11-07T11:53:34.542Z,93.04
2018-11-07T11:54:44.466Z,92.85
2018-11-07T11:55:54.724Z,93.14
2018-11-07T11:57:04.830Z,92.56
2018-11-07T11:58:14.895Z,92.47
2018-11-07T11:59:25.463Z,92.47
2018-11-07T12:00:37.185Z,92.27
2018-11-07T12:01:47.269Z,92.18
2018-11-07T12:02:56.833Z,92.47
2018-11-07T12:04:06.941Z,92.03
2018-11-07T12:05:17.306Z,92.32
2018-11-07T12:06:27.286Z,92.03
2018-11-07T12:07:37.656Z,92.61
2018-11-07T12:08:47.888Z,92.51
2018-11-07T12:09:58.812Z,92.61
2018-11-07T12:11:11.274Z,92.71
2018-11-07T12:12:20.837Z,92.71
2018-11-07T12:13:30.950Z,92.32
2018-11-07T12:14:41.293Z,92.51
2018-11-07T12:15:51.141Z,92.61
2018-11-07T12:17:00.444Z,92.51
2018-11-07T12:18:10.738Z,92.13
2018-11-07T12:19:20.575Z,92.03
2018-11-07T12:20:30.669Z,92.03
2018-11-07T12:21:40.742Z,92.17
2018-11-07T12:22:50.306Z,91.98
2018-11-07T12:23:59.881Z,92.08
2018-11-07T12:25:09.953Z,91.98
2018-11-07T12:26:19.777Z,92.03
2018-11-07T12:27:29.893Z,92.22
2018-11-07T12:28:39.781Z,92.61
2018-11-07T12:29:49.876Z,92.51
2018-11-07T12:30:59.976Z,92.8
2018-11-07T12:32:09.541Z,92.61
2018-11-07T12:33:19.620Z,92.32
2018-11-07T12:34:29.527Z,93.19
2018-11-07T12:35:39.381Z,92.9
2018-11-07T12:36:49.473Z,92.71
2018-11-07T12:37:59.297Z,92.94
2018-11-07T12:39:09.074Z,93.43
2018-11-07T12:40:19.169Z,93.52
2018-11-07T12:41:29.264Z,93.04
2018-11-07T12:42:39.407Z,93.14
2018-11-07T12:43:49.601Z,93.43
2018-11-07T12:44:59.695Z,92.85
2018-11-07T12:46:09.849Z,93.14
2018-11-07T12:47:19.988Z,93
2018-11-07T12:48:30.075Z,93.48
2018-11-07T12:49:40.339Z,93.29
2018-11-07T12:50:51.007Z,93.19
2018-11-07T12:52:01.143Z,93.29
2018-11-07T12:53:11.245Z,93.38
2018-11-07T12:54:20.882Z,93.29
2018-11-07T12:55:30.949Z,93.38
2018-11-07T12:56:41.038Z,93.09
2018-11-07T12:57:51.482Z,93.29
2018-11-07T12:59:02.369Z,93.09
2018-11-07T13:00:12.553Z,93.57
2018-11-07T13:01:22.418Z,92.71
2018-11-07T13:02:32.250Z,93
2018-11-07T13:03:42.492Z,92.52
2018-11-07T13:04:52.561Z,92.52
2018-11-07T13:06:02.748Z,93
2018-11-07T13:07:12.579Z,92.9
2018-11-07T13:08:22.415Z,93.57
2018-11-07T13:09:32.235Z,93.29
2018-11-07T13:10:42.077Z,93.09
2018-11-07T13:11:51.662Z,93.33
2018-11-07T13:13:01.518Z,93.15
2018-11-07T13:14:11.631Z,93.62
2018-11-07T13:15:21.772Z,94.01
2018-11-07T13:16:31.721Z,93.53
2018-11-07T13:17:42.286Z,94.01
2018-11-07T13:18:51.579Z,94.01
2018-11-07T13:20:01.780Z,93.72
2018-11-07T13:21:11.402Z,93.82
2018-11-07T13:22:21.604Z,93.96
2018-11-07T13:23:32.209Z,94.35
2018-11-07T13:24:42.019Z,94.25
2018-11-07T13:25:51.991Z,94.15
2018-11-07T13:27:02.074Z,94.15
2018-11-07T13:28:12.533Z,94.15
2018-11-07T13:29:23.357Z,94.06
2018-11-07T13:30:33.191Z,94.54
2018-11-07T13:31:43.305Z,94.35
2018-11-07T13:32:52.869Z,94.25
2018-11-07T13:34:02.972Z,94.25
2018-11-07T13:35:13.170Z,94.64
2018-11-07T13:36:23.257Z,94.25
2018-11-07T13:37:34.934Z,94.73
2018-11-07T13:38:47.216Z,94.68
2018-11-07T13:39:58.764Z,94.59
2018-11-07T13:41:09.096Z,94.49
2018-11-07T13:42:19.284Z,94.59
2018-11-07T13:43:29.098Z,94.98
2018-11-07T13:44:39.219Z,95.07
2018-11-07T13:45:49.112Z,94.68
2018-11-07T13:46:59.587Z,94.68
2018-11-07T13:48:09.672Z,95.07
2018-11-07T13:49:19.557Z,95.07
2018-11-07T13:50:29.109Z,95.31
2018-11-07T13:51:38.962Z,95.21
2018-11-07T13:52:49.143Z,94.64
2018-11-07T13:53:59.373Z,95.03
2018-11-07T13:55:09.713Z,95.03
2018-11-07T13:56:19.807Z,94.83
2018-11-07T13:57:29.105Z,94.83
2018-11-07T13:58:38.689Z,95.03
2018-11-07T13:59:48.773Z,94.64
2018-11-07T14:00:58.649Z,95.12
2018-11-07T14:02:08.215Z,95.31
2018-11-07T14:03:18.060Z,95.12
2018-11-07T14:04:27.141Z,95.4
2018-11-07T14:05:37.738Z,95.7
2018-11-07T14:06:48.475Z,95.79
2018-11-07T14:07:58.567Z,95.5
2018-11-07T14:09:10.874Z,95.65
2018-11-07T14:10:20.426Z,95.36
2018-11-07T14:11:30.271Z,95.45
2018-11-07T14:12:40.234Z,95.45
2018-11-07T14:13:49.511Z,96.32
2018-11-07T14:14:59.577Z,96.13
2018-11-07T14:16:10.128Z,96.13
2018-11-07T14:17:20.222Z,96.13
2018-11-07T14:18:29.774Z,96.08
2018-11-07T14:19:39.838Z,95.6
2018-11-07T14:20:49.932Z,96.08
2018-11-07T14:21:59.744Z,95.7
2018-11-07T14:23:09.600Z,95.89
2018-11-07T14:24:19.726Z,95.79
2018-11-07T14:25:29.821Z,95.79
2018-11-07T14:26:39.685Z,95.7
2018-11-07T14:27:50.503Z,95.6
2018-11-07T14:29:01.713Z,95.89
2018-11-07T14:30:11.878Z,95.41
2018-11-07T14:31:22.068Z,95.55
2018-11-07T14:32:32.188Z,95.6
2018-11-07T14:33:42.022Z,95.98
2018-11-07T14:34:51.590Z,96.13
2018-11-07T14:36:01.482Z,95.75
2018-11-07T14:37:11.323Z,96.03
2018-11-07T14:38:21.512Z,95.65
2018-11-07T14:39:31.126Z,95.65
2018-11-07T14:40:40.945Z,95.84
2018-11-07T14:41:51.085Z,95.94
2018-11-07T14:43:01.181Z,95.94
2018-11-07T14:44:11.279Z,95.84
2018-11-07T14:45:21.130Z,96.03
2018-11-07T14:46:31.063Z,96.18
2018-11-07T14:47:41.602Z,96.03
2018-11-07T14:48:51.465Z,96.03
2018-11-07T14:50:03.324Z,96.08
2018-11-07T14:51:13.160Z,96.47
2018-11-07T14:52:23.003Z,96.47
2018-11-07T14:53:33.009Z,96.37
2018-11-07T14:54:43.800Z,96.08
2018-11-07T14:55:53.915Z,96.75
2018-11-07T14:57:04.273Z,96.85
2018-11-07T14:58:14.422Z,96.66
2018-11-07T14:59:24.042Z,96.47
2018-11-07T15:00:34.086Z,96.56
2018-11-07T15:01:43.692Z,96.47
2018-11-07T15:02:53.715Z,96.13
2018-11-07T15:04:03.827Z,96.22
2018-11-07T15:05:13.440Z,96.99
2018-11-07T15:06:23.482Z,96.89
2018-11-07T15:07:33.570Z,96.89
2018-11-07T15:08:43.464Z,96.99
2018-11-07T15:09:53.774Z,96.7
2018-11-07T15:11:05.811Z,96.7
2018-11-07T15:12:16.035Z,96.7
2018-11-07T15:13:26.112Z,96.89
2018-11-07T15:14:35.939Z,96.66
2018-11-07T15:15:46.033Z,96.66
2018-11-07T15:16:55.600Z,96.37
2018-11-07T15:18:06.758Z,96.75
2018-11-07T15:19:16.892Z,96.47
2018-11-07T15:20:27.022Z,96.66
2018-11-07T15:21:37.111Z,96.84
2018-11-07T15:22:47.267Z,96.66
2018-11-07T15:23:57.169Z,96.84
2018-11-07T15:25:07.007Z,96.84
2018-11-07T15:26:17.500Z,96.94
2018-11-07T15:27:27.047Z,96.75
2018-11-07T15:28:37.737Z,96.66
2018-11-07T15:29:47.834Z,96.84
2018-11-07T15:30:57.429Z,96.84
2018-11-07T15:32:07.565Z,96.84
2018-11-07T15:33:17.656Z,96.75
2018-11-07T15:34:27.729Z,96.8
2018-11-07T15:35:37.553Z,96.8